Time;durP1;ratioP1;P1;durP2;ratioP2;P2;SDS_P1;SDS_P2;PMS_P1;PMS_P2;Temp;Humidity;BMP_temperature;BMP_pressure;BME280_temperature;BME280_humidity;BME280_pressure;Samples;Min_cycle;Max_cycle;Signal;HPM_P1;HPM_P2
2024/01/14 00:00:10;;;;;;;50.30;25.17;;;;;;;5.91;59.61;100849.69;675003;29;1083;-90
2024/01/14 00:00:33;;;;;;;48.05;25.15;;;;;;;5.82;60.18;100842.38;672281;29;1203;-89
2024/01/14 00:00:54;;;;;;;45.80;24.02;;;;;;;5.85;59.76;100852.88;669512;29;1541;-89
2024/01/14 00:01:15;;;;;;;45.03;23.25;;;;;;;5.85;60.09;100847.72;672447;29;1028;-90
2024/01/14 00:01:36;;;;;;;45.63;23.38;;;;;;;5.87;59.96;100836.63;674827;29;1364;-89
2024/01/14 00:01:58;;;;;;;53.43;24.63;;;;;;;5.84;60.18;100835.56;670493;29;1771;-90
2024/01/14 00:02:18;;;;;;;53.42;24.40;;;;;;;5.99;59.95;100864.81;669755;29;1419;-89
2024/01/14 00:02:39;;;;;;;55.65;25.10;;;;;;;5.92;60.26;100852.38;675006;29;1010;-89
2024/01/14 00:03:00;;;;;;;47.17;24.20;;;;;;;5.85;60.13;100843.44;670344;29;1445;-90
2024/01/14 00:03:22;;;;;;;50.88;24.58;;;;;;;5.88;60.15;100851.34;669776;29;1095;-90
2024/01/14 00:03:43;;;;;;;45.22;24.00;;;;;;;5.96;60.15;100851.69;671478;29;1611;-90
2024/01/14 00:04:04;;;;;;;45.63;24.17;;;;;;;5.94;60.00;100849.88;672362;29;1498;-90
2024/01/14 00:04:24;;;;;;;43.63;24.17;;;;;;;5.92;60.06;100846.28;669875;29;1208;-90
2024/01/14 00:04:45;;;;;;;43.07;23.67;;;;;;;5.84;59.69;100841.63;674919;29;1251;-89
2024/01/14 00:05:07;;;;;;;52.28;24.67;;;;;;;5.82;60.39;100827.72;674580;29;1549;-90
2024/01/14 00:05:27;;;;;;;49.40;24.10;;;;;;;5.88;60.24;100838.38;672424;29;1366;-90
2024/01/14 00:05:48;;;;;;;52.90;24.00;;;;;;;5.96;60.14;100840.47;674586;29;1579;-89
2024/01/14 00:06:08;;;;;;;50.27;23.73;;;;;;;5.95;60.10;100839.56;672013;29;1140;-91
2024/01/14 00:06:29;;;;;;;53.45;24.80;;;;;;;5.86;59.88;100824.47;674940;29;1520;-90
2024/01/14 00:06:50;;;;;;;52.80;25.00;;;;;;;5.92;60.05;100834.25;671971;29;1633;-89
2024/01/14 00:07:11;;;;;;;48.22;24.15;;;;;;;5.89;59.85;100834.06;672697;29;1078;-89
2024/01/14 00:07:32;;;;;;;46.50;23.65;;;;;;;5.80;59.96;100823.28;672571;29;952;-90
2024/01/14 00:07:53;;;;;;;43.80;23.70;;;;;;;5.88;60.10;100827.13;669689;29;1892;-90
2024/01/14 00:08:14;;;;;;;43.83;24.38;;;;;;;5.96;60.05;100825.78;672548;29;1344;-90
2024/01/14 00:08:35;;;;;;;45.08;24.02;;;;;;;5.90;59.97;100815.16;667641;29;1396;-90
2024/01/14 00:08:55;;;;;;;44.45;23.92;;;;;;;5.92;59.56;100829.06;675117;29;1597;-90
2024/01/14 00:09:17;;;;;;;46.63;23.40;;;;;;;5.88;60.29;100811.59;670008;29;1361;-89
2024/01/14 00:09:37;;;;;;;45.28;22.95;;;;;;;5.92;59.95;100822.97;669980;29;1040;-90
2024/01/14 00:09:59;;;;;;;45.20;22.40;;;;;;;5.89;60.02;100823.72;671300;29;1493;-90
2024/01/14 00:10:19;;;;;;;41.50;21.38;;;;;;;5.89;59.96;100834.06;672579;29;1338;-90
2024/01/14 00:10:40;;;;;;;42.58;21.05;;;;;;;5.82;59.81;100816.50;676169;29;943;-90
2024/01/14 00:11:01;;;;;;;39.65;21.00;;;;;;;5.86;60.10;100829.66;673201;29;1225;-90
2024/01/14 00:11:21;;;;;;;44.38;21.45;;;;;;;5.89;60.05;100840.16;670134;29;1231;-88
2024/01/14 00:11:42;;;;;;;45.30;21.37;;;;;;;5.89;60.07;100834.97;669488;29;1293;-90
2024/01/14 00:12:05;;;;;;;47.63;21.53;;;;;;;5.96;59.72;100819.72;671579;29;1526;-91
2024/01/14 00:12:26;;;;;;;43.38;21.90;;;;;;;5.98;60.27;100834.53;677600;29;1177;-90
2024/01/14 00:12:46;;;;;;;41.92;22.08;;;;;;;5.97;59.71;100821.50;677608;29;753;-90
2024/01/14 00:13:07;;;;;;;40.43;21.67;;;;;;;5.96;59.73;100833.56;670823;29;1167;-90
2024/01/14 00:13:28;;;;;;;40.03;21.10;;;;;;;5.91;59.83;100824.69;672224;29;1283;-89
2024/01/14 00:13:48;;;;;;;40.53;20.20;;;;;;;5.95;59.66;100828.31;671968;29;1521;-89
2024/01/14 00:14:09;;;;;;;38.63;19.92;;;;;;;5.95;60.21;100816.25;669739;29;975;-89
2024/01/14 00:14:30;;;;;;;42.55;21.25;;;;;;;6.05;59.98;100833.13;669672;29;1149;-89
2024/01/14 00:14:50;;;;;;;40.45;21.58;;;;;;;5.98;59.52;100839.72;672858;29;1670;-90
2024/01/14 00:15:11;;;;;;;41.87;22.40;;;;;;;5.91;60.03;100821.22;672344;29;1090;-90
2024/01/14 00:15:32;;;;;;;37.22;21.15;;;;;;;6.01;59.71;100833.78;669886;29;1107;-89
2024/01/14 00:15:53;;;;;;;41.60;21.45;;;;;;;5.96;60.08;100830.09;671867;29;1943;-89
2024/01/14 00:16:13;;;;;;;40.67;20.83;;;;;;;5.97;59.99;100827.59;671679;29;1265;-90
2024/01/14 00:16:34;;;;;;;43.03;22.00;;;;;;;5.96;59.85;100825.78;672239;29;1046;-89
2024/01/14 00:16:55;;;;;;;36.90;21.10;;;;;;;5.98;59.78;100831.06;673677;29;1659;-90
2024/01/14 00:17:15;;;;;;;37.75;20.85;;;;;;;5.94;59.64;100827.41;670719;29;1256;-90
2024/01/14 00:17:36;;;;;;;38.85;21.00;;;;;;;5.98;59.47;100818.09;669783;29;1208;-88
2024/01/14 00:17:57;;;;;;;38.33;21.50;;;;;;;6.00;59.60;100832.91;672106;29;1613;-89
2024/01/14 00:18:17;;;;;;;38.22;21.00;;;;;;;6.00;59.60;100832.00;677331;29;1577;-90
2024/01/14 00:18:38;;;;;;;40.70;20.75;;;;;;;5.91;59.55;100823.78;677580;29;979;-90
2024/01/14 00:18:59;;;;;;;44.50;21.00;;;;;;;5.94;60.01;100832.59;677273;29;1588;-90
2024/01/14 00:19:19;;;;;;;44.55;21.52;;;;;;;5.93;59.71;100828.25;669640;29;1392;-90
2024/01/14 00:19:40;;;;;;;42.93;21.47;;;;;;;6.00;59.70;100835.50;669693;29;1112;-90
2024/01/14 00:20:02;;;;;;;42.88;21.77;;;;;;;6.01;59.70;100824.31;674762;29;1600;-90
2024/01/14 00:20:23;;;;;;;40.15;21.70;;;;;;;5.92;59.91;100818.69;677391;29;1657;-90
2024/01/14 00:20:44;;;;;;;38.88;21.67;;;;;;;5.91;59.90;100816.94;674828;29;1165;-90
2024/01/14 00:21:05;;;;;;;39.45;22.35;;;;;;;5.99;59.75;100830.22;669397;29;1693;-90
2024/01/14 00:21:25;;;;;;;40.90;22.02;;;;;;;5.83;59.65;100844.16;669655;29;1457;-90
2024/01/14 00:21:46;;;;;;;44.63;22.08;;;;;;;5.91;60.15;100840.25;667087;29;1368;-89
2024/01/14 00:22:06;;;;;;;43.17;20.47;;;;;;;5.90;60.03;100822.94;669603;29;1495;-90
2024/01/14 00:22:27;;;;;;;41.67;21.20;;;;;;;5.86;60.08;100814.13;669724;29;1288;-91
2024/01/14 00:22:48;;;;;;;37.72;21.20;;;;;;;5.85;60.11;100817.53;669497;29;1519;-88
2024/01/14 00:23:08;;;;;;;39.70;20.97;;;;;;;5.89;60.15;100813.34;669679;29;1196;-90
2024/01/14 00:23:29;;;;;;;42.25;20.25;;;;;;;5.88;59.64;100827.13;672186;29;1164;-90
2024/01/14 00:23:49;;;;;;;41.72;19.98;;;;;;;5.93;59.80;100825.66;669559;29;1498;-90
2024/01/14 00:24:10;;;;;;;41.90;20.60;;;;;;;5.90;60.10;100820.34;672250;29;1449;-90
2024/01/14 00:24:31;;;;;;;39.85;21.23;;;;;;;5.95;59.88;100823.16;672139;29;1261;-90
2024/01/14 00:24:51;;;;;;;41.05;21.85;;;;;;;5.94;60.13;100822.25;672588;29;1533;-90
2024/01/14 00:25:15;;;;;;;39.80;21.90;;;;;;;5.92;59.76;100823.88;674754;29;1295;-90
2024/01/14 00:25:36;;;;;;;45.97;22.52;;;;;;;5.97;59.63;100826.69;672228;29;1247;-89
2024/01/14 00:25:56;;;;;;;41.92;21.88;;;;;;;5.96;59.75;100815.44;674366;29;1481;-90
2024/01/14 00:26:17;;;;;;;42.60;21.45;;;;;;;5.94;60.03;100806.69;671651;29;1232;-91
2024/01/14 00:26:38;;;;;;;37.80;21.27;;;;;;;5.96;60.06;100837.88;672124;29;1346;-89
2024/01/14 00:26:59;;;;;;;39.85;21.30;;;;;;;5.91;59.59;100824.69;667015;29;1603;-90
2024/01/14 00:27:23;;;;;;;41.08;21.08;;;;;;;5.95;59.70;100818.84;669692;29;1136;-89
2024/01/14 00:27:44;;;;;;;46.35;21.83;;;;;;;6.01;59.70;100831.19;669552;29;1671;-89
2024/01/14 00:28:05;;;;;;;42.25;21.30;;;;;;;5.86;59.67;100818.41;669251;29;1952;-90
2024/01/14 00:28:25;;;;;;;45.42;21.90;;;;;;;5.78;60.14;100809.38;667233;29;1208;-89
2024/01/14 00:28:47;;;;;;;40.40;21.00;;;;;;;5.92;60.36;100808.34;666990;29;1011;-90
2024/01/14 00:29:07;;;;;;;39.40;20.70;;;;;;;5.85;59.86;100791.63;669271;29;1561;-90
2024/01/14 00:29:28;;;;;;;35.53;19.92;;;;;;;5.79;59.87;100795.59;667658;29;1205;-90
2024/01/14 00:29:50;;;;;;;35.33;19.42;;;;;;;5.87;59.90;100800.34;672118;29;1566;-90
2024/01/14 00:30:11;;;;;;;37.45;19.42;;;;;;;5.97;59.93;100830.19;669718;29;1314;-90
2024/01/14 00:30:32;;;;;;;38.67;19.30;;;;;;;5.97;59.73;100817.22;669568;29;1411;-90
2024/01/14 00:30:52;;;;;;;39.90;19.13;;;;;;;5.85;59.95;100785.53;672028;29;1582;-90
2024/01/14 00:31:13;;;;;;;37.85;19.27;;;;;;;5.90;59.68;100809.97;669730;29;1211;-90
2024/01/14 00:31:34;;;;;;;41.03;20.25;;;;;;;5.86;59.91;100792.50;667810;29;1673;-89
2024/01/14 00:31:56;;;;;;;46.08;21.27;;;;;;;5.94;60.13;100814.47;671266;29;1534;-90
2024/01/14 00:32:17;;;;;;;44.03;21.33;;;;;;;5.95;60.09;100816.25;669671;29;1055;-90
2024/01/14 00:32:38;;;;;;;43.97;21.58;;;;;;;5.90;59.78;100815.16;669574;29;1282;-90
2024/01/14 00:32:59;;;;;;;43.65;21.83;;;;;;;5.87;59.75;100802.03;674665;29;1533;-91
2024/01/14 00:33:20;;;;;;;42.60;21.85;;;;;;;5.83;59.96;100808.78;669721;29;1646;-89
2024/01/14 00:33:40;;;;;;;39.78;21.83;;;;;;;5.88;60.11;100796.94;669667;29;1300;-91
2024/01/14 00:34:01;;;;;;;38.20;21.75;;;;;;;5.86;59.82;100805.44;670541;29;1585;-89
2024/01/14 00:34:22;;;;;;;40.08;21.63;;;;;;;5.92;59.80;100797.97;671919;29;1209;-90
2024/01/14 00:34:42;;;;;;;45.95;21.80;;;;;;;5.91;59.91;100801.38;669654;29;1562;-90
2024/01/14 00:35:03;;;;;;;44.50;21.63;;;;;;;5.96;59.78;100810.25;669399;29;1577;-90
2024/01/14 00:35:24;;;;;;;44.08;22.00;;;;;;;5.93;60.01;100804.94;672419;29;1263;-90
2024/01/14 00:35:45;;;;;;;42.05;22.10;;;;;;;5.95;59.80;100815.38;672243;29;1217;-90
2024/01/14 00:36:05;;;;;;;45.72;22.30;;;;;;;5.99;60.18;100815.59;668743;29;2123;-90
2024/01/14 00:36:26;;;;;;;46.20;22.50;;;;;;;5.89;59.76;100801.31;669844;29;915;-90
2024/01/14 00:36:47;;;;;;;45.67;23.27;;;;;;;5.94;59.89;100806.69;669940;29;770;-90
2024/01/14 00:37:10;;;;;;;42.00;23.58;;;;;;;5.91;59.63;100801.38;669364;29;1462;-90
2024/01/14 00:37:31;;;;;;;42.67;23.17;;;;;;;5.98;59.64;100808.63;672557;29;1328;-90
2024/01/14 00:37:51;;;;;;;40.73;21.80;;;;;;;6.00;59.49;100801.81;669098;29;1642;-90
2024/01/14 00:38:13;;;;;;;41.53;21.38;;;;;;;6.05;59.60;100802.03;669549;29;1204;-89
2024/01/14 00:40:29;;;;;;;50.97;21.27;;;;;;;5.86;59.75;100802.84;677419;29;1509;-89
2024/01/14 00:40:49;;;;;;;49.60;21.05;;;;;;;5.78;60.04;100786.97;679498;29;1599;-87
2024/01/14 00:41:11;;;;;;;49.65;21.73;;;;;;;5.75;59.77;100795.47;677605;29;1118;-89
2024/01/14 00:41:31;;;;;;;50.40;21.90;;;;;;;5.75;59.77;100791.97;674948;29;1002;-89
2024/01/14 00:41:52;;;;;;;47.20;21.92;;;;;;;5.82;59.89;100806.13;674566;29;1497;-89
2024/01/14 00:42:13;;;;;;;44.97;21.90;;;;;;;5.78;59.88;100788.66;672175;29;1348;-90
2024/01/14 00:42:34;;;;;;;42.38;21.65;;;;;;;5.75;60.16;100794.56;672332;29;1320;-90
2024/01/14 00:42:55;;;;;;;40.10;21.50;;;;;;;5.79;60.02;100800.78;674659;29;1543;-90
2024/01/14 00:43:15;;;;;;;41.72;21.65;;;;;;;5.75;59.80;100790.28;672348;29;1494;-90
2024/01/14 00:43:36;;;;;;;42.53;21.70;;;;;;;5.75;60.06;100790.28;670641;29;1551;-90
2024/01/14 00:43:56;;;;;;;43.50;22.02;;;;;;;5.78;59.89;100786.06;672802;29;1528;-90
2024/01/14 00:44:17;;;;;;;42.33;21.50;;;;;;;5.74;59.83;100791.09;674763;29;1252;-90
2024/01/14 00:44:41;;;;;;;42.47;21.57;;;;;;;5.71;59.78;100809.06;669671;29;1209;-89
2024/01/14 00:45:02;;;;;;;40.95;21.73;;;;;;;5.77;60.43;100805.88;676038;29;1495;-89
2024/01/14 00:45:23;;;;;;;38.85;21.85;;;;;;;5.70;59.92;100791.75;674997;29;805;-90
2024/01/14 00:45:44;;;;;;;37.88;21.35;;;;;;;5.71;60.02;100785.75;674679;29;1237;-90
2024/01/14 00:46:04;;;;;;;36.78;20.88;;;;;;;5.68;59.99;100803.75;671274;29;1615;-89
2024/01/14 00:46:25;;;;;;;39.30;21.67;;;;;;;5.54;59.99;100791.84;672171;29;1848;-90
2024/01/14 00:46:46;;;;;;;39.15;21.48;;;;;;;5.64;60.27;100793.19;669644;29;1213;-89
2024/01/14 00:47:06;;;;;;;38.85;21.58;;;;;;;5.51;60.27;100789.97;671549;29;1583;-90
2024/01/14 00:47:30;;;;;;;43.60;21.93;;;;;;;5.55;60.06;100791.03;674882;29;1173;-90
2024/01/14 00:47:50;;;;;;;45.90;22.60;;;;;;;5.69;60.22;100807.22;674148;29;1589;-89
2024/01/14 00:48:11;;;;;;;45.10;21.95;;;;;;;5.63;59.82;100806.94;672064;29;1980;-89
2024/01/14 00:48:32;;;;;;;41.17;21.27;;;;;;;5.54;60.52;100791.84;671845;29;1458;-90
2024/01/14 00:48:52;;;;;;;45.65;20.95;;;;;;;5.68;60.52;100801.16;669315;29;1589;-89
2024/01/14 00:49:13;;;;;;;48.95;21.13;;;;;;;5.65;59.95;100794.94;669467;29;1169;-90
2024/01/14 00:49:33;;;;;;;47.07;21.23;;;;;;;5.65;60.26;100793.22;672178;29;1150;-89
2024/01/14 00:49:54;;;;;;;44.13;21.17;;;;;;;5.64;60.34;100796.63;670072;29;1638;-90
2024/01/14 00:50:15;;;;;;;41.83;21.42;;;;;;;5.59;60.28;100796.41;668141;29;1169;-91
2024/01/14 00:50:35;;;;;;;44.00;21.95;;;;;;;5.56;60.12;100788.50;669627;29;1249;-91
2024/01/14 00:50:56;;;;;;;41.83;21.97;;;;;;;5.61;60.18;100793.91;672039;29;1707;-90
2024/01/14 00:51:17;;;;;;;42.78;21.58;;;;;;;5.56;60.22;100782.44;672104;29;1797;-91
2024/01/14 00:51:38;;;;;;;41.37;20.83;;;;;;;5.63;60.24;100800.03;672253;29;1270;-91
2024/01/14 00:51:59;;;;;;;44.30;21.73;;;;;;;5.53;60.72;100792.66;673142;29;1505;-91
2024/01/14 00:52:20;;;;;;;39.22;21.40;;;;;;;5.53;60.43;100798.69;672298;29;1202;-90
2024/01/14 00:52:40;;;;;;;37.13;20.43;;;;;;;5.58;60.33;100798.97;674912;29;1209;-90
2024/01/14 00:53:01;;;;;;;38.75;20.33;;;;;;;5.56;60.65;100787.63;674398;29;1598;-90
2024/01/14 00:53:22;;;;;;;41.60;20.05;;;;;;;5.57;60.55;100794.56;674070;29;1614;-90
2024/01/14 00:53:43;;;;;;;42.50;20.85;;;;;;;5.60;60.35;100784.38;672171;29;1394;-91
2024/01/14 00:54:06;;;;;;;39.28;20.40;;;;;;;5.61;60.01;100789.59;669919;29;1483;-90
2024/01/14 00:54:27;;;;;;;39.85;20.70;;;;;;;5.69;60.24;100782.22;672316;29;1372;-91
2024/01/14 00:54:47;;;;;;;37.42;20.25;;;;;;;5.76;60.02;100788.56;669594;29;1333;-90
2024/01/14 00:55:09;;;;;;;38.03;19.73;;;;;;;5.74;60.12;100782.44;671855;29;1493;-90
2024/01/14 00:55:29;;;;;;;35.35;19.13;;;;;;;5.68;60.26;100782.13;672272;29;1289;-91
2024/01/14 00:55:50;;;;;;;35.23;18.77;;;;;;;5.75;60.07;100794.56;672058;29;1497;-88
2024/01/14 00:56:12;;;;;;;34.55;19.08;;;;;;;5.73;59.95;100788.44;671630;29;1293;-90
2024/01/14 00:56:35;;;;;;;37.85;20.48;;;;;;;5.69;59.86;100790.00;674740;29;1382;-91
2024/01/14 00:56:56;;;;;;;39.13;20.42;;;;;;;5.73;60.26;100776.41;669002;29;1514;-91
2024/01/14 00:57:16;;;;;;;41.70;20.70;;;;;;;5.71;60.42;100792.66;672023;29;1466;-91
2024/01/14 00:57:37;;;;;;;40.10;19.17;;;;;;;5.72;59.79;100784.06;669595;29;1180;-89
2024/01/14 00:57:57;;;;;;;38.55;19.98;;;;;;;5.75;60.00;100789.41;674705;29;1472;-90
2024/01/14 00:58:18;;;;;;;34.20;19.13;;;;;;;5.82;59.77;100791.47;674469;29;2016;-90
2024/01/14 00:58:39;;;;;;;34.33;19.00;;;;;;;5.77;59.95;100787.75;672150;29;1266;-90
2024/01/14 00:58:59;;;;;;;37.45;18.27;;;;;;;5.77;59.88;100790.34;669141;29;1649;-90
2024/01/14 00:59:20;;;;;;;41.42;19.05;;;;;;;5.78;59.96;100793.84;674724;29;1197;-91
2024/01/14 00:59:41;;;;;;;37.87;18.97;;;;;;;5.85;59.77;100801.09;669542;29;1140;-90
2024/01/14 01:00:02;;;;;;;31.77;19.05;;;;;;;5.82;59.62;100790.59;672067;29;1555;-90
2024/01/14 01:00:24;;;;;;;35.85;19.35;;;;;;;5.80;60.08;100789.59;672255;29;1257;-90
2024/01/14 01:00:45;;;;;;;40.10;19.70;;;;;;;5.77;59.87;100787.75;672070;29;1398;-90
2024/01/14 01:01:08;;;;;;;37.92;18.10;;;;;;;5.77;59.84;100790.34;669298;29;1523;-89
2024/01/14 01:01:29;;;;;;;33.22;17.85;;;;;;;5.77;59.84;100789.47;669472;29;1294;-90
2024/01/14 01:01:50;;;;;;;29.30;16.85;;;;;;;5.82;59.83;100798.38;669406;29;1732;-88
2024/01/14 01:02:11;;;;;;;33.15;17.80;;;;;;;5.86;59.79;100792.50;669588;29;1203;-89
2024/01/14 01:02:31;;;;;;;35.35;18.35;;;;;;;5.78;59.81;100779.19;667140;29;1099;-89
2024/01/14 01:02:52;;;;;;;38.03;19.02;;;;;;;5.92;59.39;100789.31;669747;29;1567;-90
2024/01/14 01:03:13;;;;;;;35.20;18.80;;;;;;;5.94;59.81;100792.88;674858;29;1008;-90
2024/01/14 01:03:34;;;;;;;31.53;18.00;;;;;;;5.94;59.54;100785.97;672175;29;1184;-89
2024/01/14 01:03:54;;;;;;;33.70;18.02;;;;;;;5.87;59.75;100789.09;671970;29;1747;-89
2024/01/14 01:04:15;;;;;;;37.90;18.80;;;;;;;5.83;59.64;100782.00;672198;29;993;-89
2024/01/14 01:04:35;;;;;;;38.73;18.93;;;;;;;5.77;60.02;100792.06;672238;29;1083;-91
2024/01/14 01:04:57;;;;;;;35.60;19.00;;;;;;;5.79;59.96;100780.06;672840;29;1470;-89
2024/01/14 01:05:17;;;;;;;33.65;18.63;;;;;;;5.83;59.39;100793.22;672041;29;1609;-89
2024/01/14 01:05:38;;;;;;;32.60;18.50;;;;;;;5.83;59.64;100782.88;669666;29;1033;-89
2024/01/14 01:05:59;;;;;;;32.47;17.80;;;;;;;5.73;59.73;100775.50;669454;29;1498;-90
2024/01/14 01:06:19;;;;;;;32.65;18.20;;;;;;;5.83;59.77;100788.06;668835;29;1917;-89
2024/01/14 01:06:40;;;;;;;33.13;18.23;;;;;;;5.79;59.66;100793.03;669418;29;1352;-90
2024/01/14 01:07:01;;;;;;;31.97;18.00;;;;;;;5.77;59.99;100787.75;671690;29;1475;-89
2024/01/14 01:07:21;;;;;;;33.45;17.40;;;;;;;5.70;59.84;100778.81;667138;29;1298;-89
2024/01/14 01:07:42;;;;;;;34.53;17.50;;;;;;;5.73;59.40;100786.75;667040;29;1122;-89
2024/01/14 01:08:03;;;;;;;34.07;17.23;;;;;;;5.79;60.14;100795.59;668048;29;1981;-89
2024/01/14 01:08:23;;;;;;;32.28;17.30;;;;;;;5.77;60.14;100792.06;669476;29;1157;-90
2024/01/14 01:08:44;;;;;;;30.17;17.30;;;;;;;5.82;59.64;100793.19;671955;29;1088;-90
2024/01/14 01:09:05;;;;;;;29.02;17.25;;;;;;;5.75;59.65;100794.56;671925;29;1551;-90
2024/01/14 01:09:25;;;;;;;26.98;16.55;;;;;;;5.73;59.64;100785.84;674865;29;1212;-90
2024/01/14 01:09:46;;;;;;;31.50;16.87;;;;;;;5.84;59.66;100809.69;669524;29;1286;-89
2024/01/14 01:10:06;;;;;;;31.13;16.83;;;;;;;5.79;59.50;100791.31;669417;29;1537;-89
2024/01/14 01:10:27;;;;;;;36.03;17.50;;;;;;;5.82;59.52;100790.59;669569;29;1075;-90
2024/01/14 01:10:49;;;;;;;34.03;17.50;;;;;;;5.90;59.60;100799.63;669711;29;1449;-89
2024/01/14 01:11:09;;;;;;;34.70;17.38;;;;;;;5.83;59.73;100779.41;671780;29;1471;-89
2024/01/14 01:11:30;;;;;;;32.87;17.13;;;;;;;5.83;60.11;100787.19;675841;29;1212;-89
2024/01/14 01:11:50;;;;;;;30.60;17.13;;;;;;;5.80;59.67;100776.66;670140;29;1600;-89
2024/01/14 01:12:11;;;;;;;28.13;16.80;;;;;;;5.78;59.58;100786.06;672258;29;1117;-90
2024/01/14 01:12:32;;;;;;;27.10;16.70;;;;;;;5.81;59.61;100787.09;674640;29;1389;-89
2024/01/14 01:12:53;;;;;;;27.63;16.98;;;;;;;5.84;59.75;100791.53;674634;29;1667;-89
2024/01/14 01:13:14;;;;;;;31.65;17.35;;;;;;;5.84;59.37;100779.47;672165;29;1102;-90
2024/01/14 01:13:35;;;;;;;31.75;16.98;;;;;;;5.79;59.78;100783.56;675614;29;1231;-89
2024/01/14 01:13:55;;;;;;;35.50;17.20;;;;;;;5.85;59.52;100793.31;672656;29;1456;-90
2024/01/14 01:14:16;;;;;;;34.50;18.13;;;;;;;5.74;59.46;100777.25;669446;29;1329;-88
2024/01/14 01:14:37;;;;;;;38.47;18.20;;;;;;;5.81;59.84;100788.78;669535;29;1364;-88
2024/01/14 01:14:57;;;;;;;34.60;17.45;;;;;;;5.73;59.74;100776.41;669450;29;1123;-89
2024/01/14 01:15:18;;;;;;;31.70;16.25;;;;;;;5.75;60.00;100785.13;669651;29;1197;-90
2024/01/14 01:15:39;;;;;;;28.37;16.33;;;;;;;5.75;59.78;100794.56;669553;29;1185;-89
2024/01/14 01:15:59;;;;;;;28.23;17.00;;;;;;;5.75;60.12;100785.13;670544;29;1532;-90
2024/01/14 01:16:20;;;;;;;31.38;16.80;;;;;;;5.68;59.61;100772.69;665859;29;1447;-90
2024/01/14 01:16:41;;;;;;;31.40;17.15;;;;;;;5.71;59.97;100782.31;667141;29;1055;-90
2024/01/14 01:17:02;;;;;;;35.83;17.30;;;;;;;5.77;59.92;100774.81;668255;29;1632;-90
2024/01/14 01:17:22;;;;;;;36.17;18.10;;;;;;;5.79;59.59;100769.72;669684;29;1371;-90
2024/01/14 01:17:43;;;;;;;40.83;18.60;;;;;;;5.79;59.75;100759.34;669344;29;1265;-89
2024/01/14 01:18:04;;;;;;;42.30;18.70;;;;;;;5.89;59.38;100777.09;674132;29;1458;-90
2024/01/14 01:18:25;;;;;;;37.58;18.00;;;;;;;5.84;59.45;100765.66;672150;29;1313;-90
2024/01/14 01:18:45;;;;;;;38.57;17.80;;;;;;;5.87;59.42;100770.97;672133;29;1133;-90
2024/01/14 01:19:06;;;;;;;33.40;17.25;;;;;;;5.84;59.56;100763.06;674375;29;1509;-90
2024/01/14 01:19:27;;;;;;;36.33;17.38;;;;;;;5.81;59.31;100768.06;674783;29;1027;-89
2024/01/14 01:19:47;;;;;;;33.90;17.27;;;;;;;5.87;59.60;100783.91;669501;29;1136;-89
2024/01/14 01:20:08;;;;;;;32.78;16.88;;;;;;;5.85;59.32;100770.91;671967;29;1463;-90
2024/01/14 01:20:29;;;;;;;30.95;16.98;;;;;;;5.78;59.27;100767.94;672223;29;1073;-89
2024/01/14 01:20:51;;;;;;;31.00;17.27;;;;;;;5.76;59.32;100760.09;669712;29;1381;-90
2024/01/14 01:21:17;;;;;;;36.85;17.83;;;;;;;5.81;59.50;100775.84;672016;29;1432;-90
2024/01/14 01:21:38;;;;;;;38.38;18.27;;;;;;;5.75;59.74;100764.41;674654;29;1188;-90
2024/01/14 01:21:58;;;;;;;37.63;18.20;;;;;;;5.77;59.57;100772.22;673033;29;1439;-89
2024/01/14 01:22:19;;;;;;;38.13;17.60;;;;;;;5.75;59.60;100758.31;674916;29;1135;-89
2024/01/14 01:22:40;;;;;;;38.43;17.80;;;;;;;5.84;59.93;100761.34;677526;29;1149;-89
2024/01/14 01:23:00;;;;;;;34.15;17.60;;;;;;;5.78;59.62;100758.47;673204;29;1569;-89
2024/01/14 01:23:21;;;;;;;32.47;18.55;;;;;;;5.81;59.68;100765.47;668799;29;1563;-90
2024/01/14 01:23:41;;;;;;;34.17;18.70;;;;;;;5.80;59.46;100776.66;667096;29;1246;-89
2024/01/14 01:24:02;;;;;;;35.00;18.92;;;;;;;5.75;59.53;100767.00;666848;29;1554;-90
2024/01/14 01:24:23;;;;;;;36.65;18.70;;;;;;;5.71;59.27;100757.28;672386;29;805;-90
2024/01/14 01:24:44;;;;;;;36.37;18.60;;;;;;;5.81;59.61;100773.25;672296;29;1144;-90
2024/01/14 01:25:05;;;;;;;33.90;17.65;;;;;;;5.65;59.81;100767.34;674599;29;1526;-90
2024/01/14 01:25:25;;;;;;;32.65;17.05;;;;;;;5.75;59.92;100760.91;673605;29;1621;-90
2024/01/14 01:25:46;;;;;;;32.37;17.07;;;;;;;5.67;59.69;100752.78;672236;29;1051;-90
2024/01/14 01:26:06;;;;;;;34.85;18.08;;;;;;;5.68;59.70;100762.31;671319;29;1466;-90
2024/01/14 01:26:27;;;;;;;37.40;17.52;;;;;;;5.68;59.79;100757.16;669478;29;1156;-90
2024/01/14 01:26:48;;;;;;;36.17;16.97;;;;;;;5.60;59.60;100753.31;674677;29;1280;-89
2024/01/14 01:27:09;;;;;;;35.13;16.85;;;;;;;5.67;59.93;100751.88;669231;29;1526;-90
2024/01/14 01:27:29;;;;;;;30.92;17.60;;;;;;;5.63;59.54;100763.78;669684;29;1338;-90
2024/01/14 01:27:50;;;;;;;30.83;17.27;;;;;;;5.64;59.57;100759.53;672199;29;1460;-90
2024/01/14 01:28:10;;;;;;;30.92;16.85;;;;;;;5.61;59.65;100755.94;672003;29;1965;-90
2024/01/14 01:28:31;;;;;;;30.80;16.50;;;;;;;5.64;59.64;100760.38;671885;29;1250;-90
2024/01/14 01:28:52;;;;;;;29.98;16.92;;;;;;;5.65;59.77;100759.56;667083;29;1530;-89
2024/01/14 01:29:13;;;;;;;29.73;16.95;;;;;;;5.66;59.84;100753.59;669556;29;1107;-90
2024/01/14 01:29:33;;;;;;;31.17;17.27;;;;;;;5.79;59.47;100765.44;669593;29;1122;-89
2024/01/14 01:29:54;;;;;;;31.33;17.20;;;;;;;5.78;59.83;100760.16;672058;29;1108;-89
2024/01/14 01:30:15;;;;;;;31.80;17.75;;;;;;;5.79;59.58;100775.78;669520;29;1169;-90
2024/01/14 01:30:35;;;;;;;30.70;17.85;;;;;;;5.73;59.47;100750.50;672165;29;1188;-90
2024/01/14 01:30:56;;;;;;;30.98;17.25;;;;;;;5.83;59.42;100758.69;674530;29;1627;-90
2024/01/14 01:31:17;;;;;;;33.90;17.63;;;;;;;5.68;59.91;100758.84;672022;29;1197;-89
2024/01/14 01:31:37;;;;;;;34.42;17.20;;;;;;;5.77;59.84;100776.53;672255;29;1106;-89
2024/01/14 01:31:58;;;;;;;34.00;17.98;;;;;;;5.69;59.82;100760.59;674669;29;1454;-90
2024/01/14 01:32:19;;;;;;;28.10;16.10;;;;;;;5.66;60.00;100755.28;672290;29;1155;-90
2024/01/14 01:32:39;;;;;;;28.03;16.27;;;;;;;5.72;60.04;100764.22;677300;29;1231;-90
2024/01/14 01:33:00;;;;;;;29.05;16.13;;;;;;;5.80;59.44;100768.88;674469;29;1512;-88
2024/01/14 01:33:21;;;;;;;30.00;17.38;;;;;;;5.66;59.57;100747.53;674732;29;1297;-90
2024/01/14 01:33:41;;;;;;;32.90;18.27;;;;;;;5.71;59.61;100757.28;673853;29;1026;-90
2024/01/14 01:34:02;;;;;;;33.67;18.70;;;;;;;5.71;59.97;100767.63;671623;29;1249;-90
2024/01/14 01:34:23;;;;;;;34.07;18.63;;;;;;;5.71;59.79;100751.22;672246;29;1049;-90
2024/01/14 01:34:44;;;;;;;33.45;18.67;;;;;;;5.70;59.59;100758.09;669738;29;1056;-90
2024/01/14 01:35:05;;;;;;;35.83;18.98;;;;;;;5.68;59.68;100759.75;669333;29;1483;-90
2024/01/14 01:35:25;;;;;;;37.28;19.30;;;;;;;5.80;59.67;100771.47;674781;29;927;-89
2024/01/14 01:35:46;;;;;;;34.40;19.00;;;;;;;5.71;59.83;100759.88;674667;29;1152;-90
2024/01/14 01:36:07;;;;;;;31.53;18.47;;;;;;;5.80;60.06;100761.13;670735;29;1602;-90
2024/01/14 01:36:27;;;;;;;32.75;18.60;;;;;;;5.85;59.81;100764.81;674374;29;1441;-89
2024/01/14 01:36:48;;;;;;;30.92;18.00;;;;;;;5.79;59.64;100760.25;669712;29;1118;-90
2024/01/14 01:37:08;;;;;;;30.35;17.65;;;;;;;5.85;59.56;100764.81;671873;29;1548;-90
2024/01/14 01:37:29;;;;;;;30.20;17.53;;;;;;;5.80;59.24;100753.34;670145;29;1320;-89
2024/01/14 01:37:49;;;;;;;33.28;17.90;;;;;;;5.80;59.27;100753.34;672304;29;777;-90
2024/01/14 01:38:10;;;;;;;33.67;18.48;;;;;;;5.81;59.61;100753.44;669157;29;1479;-89
2024/01/14 01:38:31;;;;;;;33.03;18.23;;;;;;;5.85;59.45;100770.00;672033;29;1063;-90
2024/01/14 01:38:51;;;;;;;31.25;17.70;;;;;;;5.80;59.59;100762.03;669442;29;1476;-89
2024/01/14 01:39:14;;;;;;;32.92;18.13;;;;;;;5.78;59.50;100753.31;669548;29;1309;-89
2024/01/14 01:39:34;;;;;;;33.22;18.23;;;;;;;5.85;59.30;100754.47;669560;29;1085;-90
2024/01/14 01:39:56;;;;;;;34.75;18.70;;;;;;;5.82;59.43;100756.94;672060;29;1672;-89
2024/01/14 01:40:17;;;;;;;36.45;18.63;;;;;;;5.77;59.56;100750.63;674699;29;1186;-90